createdAt,value
2023-02-28T00:02:41.969Z,100010.87
2023-02-28T00:09:02.056Z,100016.33
2023-02-28T00:12:18.989Z,100021.39
2023-02-28T00:15:35.847Z,100020.38
2023-02-28T00:18:53.848Z,100023.91
2023-02-28T00:22:10.401Z,100021.48
2023-02-28T00:25:30.316Z,100027.53
2023-02-28T00:28:47.243Z,100025.75
2023-02-28T00:32:04.078Z,100027.44
2023-02-28T00:35:23.151Z,100028.30
2023-02-28T00:38:40.406Z,100032.60
2023-02-28T00:41:57.533Z,100027.44
2023-02-28T00:45:15.804Z,100016.42
2023-02-28T00:48:32.028Z,100018.18
2023-02-28T00:51:48.180Z,100023.63
2023-02-28T00:55:04.922Z,100020.94
2023-02-28T00:58:22.284Z,100011.37
2023-02-28T01:01:39.627Z,100017.00
2023-02-28T01:04:58.724Z,100019.52
2023-02-28T01:08:15.927Z,100015.04
2023-02-28T01:11:34.265Z,100023.48
2023-02-28T01:14:51.648Z,100021.03
2023-02-28T01:18:09.683Z,100014.67
2023-02-28T01:21:29.068Z,100020.44
2023-02-28T01:24:44.990Z,100017.47
2023-02-28T01:28:03.259Z,100011.94
2023-02-28T01:31:20.502Z,100019.84
2023-02-28T01:34:38.418Z,100023.05
2023-02-28T01:37:55.624Z,100019.12
2023-02-28T01:41:15.160Z,100016.10
2023-02-28T01:45:03.828Z,100020.48
2023-02-28T01:48:20.486Z,100011.66
2023-02-28T01:54:44.264Z,100011.57
2023-02-28T01:58:05.434Z,100015.78
2023-02-28T02:01:23.541Z,100007.90
2023-02-28T02:04:46.340Z,100013.35
2023-02-28T02:11:09.018Z,100004.16
2023-02-28T02:14:37.941Z,100005.94
2023-02-28T02:18:00.559Z,100005.40
2023-02-28T02:21:38.276Z,100007.17
2023-02-28T02:25:17.767Z,100005.48
2023-02-28T02:29:20.504Z,100001.19
2023-02-28T02:33:30.047Z,99996.98
2023-02-28T02:42:58.789Z,99997.16
2023-02-28T02:46:19.757Z,99992.00
2023-02-28T02:49:42.163Z,99986.20
2023-02-28T02:56:04.034Z,99985.51
2023-02-28T02:59:27.222Z,99984.59
2023-02-28T03:02:45.156Z,99982.91
2023-02-28T03:06:04.189Z,99978.55
2023-02-28T03:09:18.854Z,99984.22
2023-02-28T03:12:42.537Z,99981.88
2023-02-28T03:16:12.137Z,99986.31
2023-02-28T03:19:56.944Z,99984.11
2023-02-28T03:23:24.031Z,99994.89
2023-02-28T03:26:43.140Z,100006.30
2023-02-28T03:30:05.585Z,100005.95
2023-02-28T03:33:27.637Z,100002.34
2023-02-28T03:36:50.060Z,100008.30
2023-02-28T03:40:14.692Z,100005.00
2023-02-28T03:43:36.139Z,100009.47
2023-02-28T03:46:57.665Z,100005.95
2023-02-28T03:50:20.239Z,100019.80
2023-02-28T03:53:41.343Z,100014.06
2023-02-28T03:57:04.732Z,100018.08
2023-02-28T04:00:27.753Z,100019.69
2023-02-28T04:03:46.434Z,100017.45
2023-02-28T04:07:09.785Z,100020.77
2023-02-28T04:10:28.122Z,100019.86
2023-02-28T04:13:46.709Z,100030.92
2023-02-28T04:17:03.506Z,100028.24
2023-02-28T04:20:22.525Z,100026.42
2023-02-28T04:23:39.622Z,100027.54
2023-02-28T04:26:59.903Z,100020.64
2023-02-28T04:30:20.047Z,100034.22
2023-02-28T04:33:39.836Z,100037.89
2023-02-28T04:37:11.802Z,100034.80
2023-02-28T04:40:22.743Z,100029.52
2023-02-28T04:43:40.989Z,100040.42
2023-02-28T04:46:58.802Z,100037.39
2023-02-28T04:50:18.066Z,100041.27
2023-02-28T04:53:36.458Z,100032.05
2023-02-28T04:56:52.970Z,100039.92
2023-02-28T05:00:13.360Z,100039.02
2023-02-28T05:03:32.463Z,100043.03
2023-02-28T05:06:49.446Z,100044.77
2023-02-28T05:10:11.373Z,100046.89
2023-02-28T05:13:27.936Z,100043.16
2023-02-28T05:16:44.703Z,100046.66
2023-02-28T05:20:14.675Z,100049.56
2023-02-28T05:23:23.649Z,100046.69
2023-02-28T05:26:42.688Z,100052.28
2023-02-28T05:29:59.064Z,100054.67
2023-02-28T05:33:19.935Z,100066.48
2023-02-28T05:36:36.810Z,100063.10
2023-02-28T05:39:54.114Z,100071.83
2023-02-28T05:43:10.952Z,100075.06
2023-02-28T05:46:30.036Z,100083.76
2023-02-28T05:49:46.823Z,100086.36
2023-02-28T05:53:06.003Z,100080.97
2023-02-28T05:56:24.469Z,100088.53
2023-02-28T05:59:41.888Z,100097.56
2023-02-28T06:03:01.221Z,100091.93
2023-02-28T06:06:16.485Z,100091.38
2023-02-28T06:09:33.803Z,100092.78
2023-02-28T06:12:51.455Z,100093.20
2023-02-28T06:16:11.627Z,100102.47
2023-02-28T06:19:30.519Z,100110.16
2023-02-28T06:25:54.914Z,100112.88
2023-02-28T06:29:11.268Z,100118.30
2023-02-28T06:32:30.149Z,100121.69
2023-02-28T06:35:52.156Z,100124.98
2023-02-28T06:39:09.764Z,100122.23
2023-02-28T06:42:30.199Z,100117.73
2023-02-28T06:45:50.684Z,100123.00
2023-02-28T06:49:09.629Z,100119.20
2023-02-28T06:55:30.706Z,100129.95
2023-02-28T06:58:48.997Z,100137.77
2023-02-28T07:02:08.145Z,100135.24
2023-02-28T07:05:24.936Z,100144.53
2023-02-28T07:08:43.439Z,100143.13
2023-02-28T07:12:01.117Z,100144.66
2023-02-28T07:15:19.973Z,100155.23
2023-02-28T07:18:37.321Z,100143.50
2023-02-28T07:21:54.577Z,100154.53
2023-02-28T07:25:12.975Z,100155.36
2023-02-28T07:28:29.501Z,100159.66
2023-02-28T07:31:46.233Z,100152.84
2023-02-28T07:35:03.808Z,100156.48
2023-02-28T07:41:26.740Z,100164.61
2023-02-28T07:44:44.301Z,100157.36
2023-02-28T07:48:02.754Z,100159.48
2023-02-28T07:51:19.331Z,100158.13
2023-02-28T07:57:39.094Z,100155.27
2023-02-28T08:00:55.313Z,100161.48
2023-02-28T08:04:11.759Z,100156.57
2023-02-28T08:07:28.665Z,100159.35
2023-02-28T08:10:45.118Z,100158.96
2023-02-28T08:14:01.496Z,100160.44
2023-02-28T08:17:21.614Z,100164.95
2023-02-28T08:20:38.106Z,100161.39
2023-02-28T08:23:55.611Z,100168.98
2023-02-28T08:27:12.457Z,100164.14
2023-02-28T08:30:29.702Z,100165.84
2023-02-28T08:33:47.378Z,100164.71
2023-02-28T08:37:06.347Z,100167.77
2023-02-28T08:40:24.224Z,100162.77
2023-02-28T08:43:40.781Z,100167.33
2023-02-28T08:46:57.251Z,100169.76
2023-02-28T08:50:20.337Z,100162.99
2023-02-28T08:53:36.640Z,100171.89
2023-02-28T08:56:53.480Z,100169.96
2023-02-28T09:00:11.964Z,100174.00
2023-02-28T09:03:29.496Z,100177.46
2023-02-28T09:06:46.224Z,100174.85
2023-02-28T09:10:05.495Z,100184.09
2023-02-28T09:13:22.320Z,100177.82
2023-02-28T09:16:40.098Z,100174.83
2023-02-28T09:19:59.827Z,100168.44
2023-02-28T09:29:22.453Z,100180.77
2023-02-28T09:32:38.956Z,100172.80
2023-02-28T09:35:55.196Z,100174.20
2023-02-28T09:42:19.496Z,100171.10
2023-02-28T09:45:40.068Z,100178.47
2023-02-28T09:48:59.080Z,100171.05
2023-02-28T09:52:19.094Z,100180.20
2023-02-28T09:55:46.455Z,100181.79
2023-02-28T09:59:03.820Z,100182.83
2023-02-28T10:02:43.591Z,100193.18
2023-02-28T10:06:06.077Z,100175.61
2023-02-28T10:09:28.000Z,100191.49
2023-02-28T10:12:47.335Z,100186.14
2023-02-28T10:16:08.671Z,100179.32
2023-02-28T10:19:32.554Z,100171.73
2023-02-28T10:23:00.278Z,100173.80
2023-02-28T10:26:23.007Z,100174.03
2023-02-28T10:29:41.898Z,100162.20
2023-02-28T10:33:01.229Z,100172.13
2023-02-28T10:36:23.483Z,100162.60
2023-02-28T10:39:54.697Z,100154.09
2023-02-28T10:43:24.457Z,100170.07
2023-02-28T10:46:43.098Z,100153.91
2023-02-28T10:50:00.381Z,100157.89
2023-02-28T10:56:34.707Z,100150.97
2023-02-28T10:59:51.322Z,100146.56
2023-02-28T11:03:07.999Z,100137.28
2023-02-28T11:06:31.788Z,100136.97
2023-02-28T11:09:51.724Z,100134.03
2023-02-28T11:13:09.957Z,100121.33
2023-02-28T11:16:27.337Z,100118.41
2023-02-28T11:19:47.768Z,100121.21
2023-02-28T11:23:06.632Z,100117.02
2023-02-28T11:26:24.232Z,100112.76
2023-02-28T11:29:42.029Z,100102.27
2023-02-28T11:33:03.532Z,100104.58
2023-02-28T11:36:28.144Z,100098.39
2023-02-28T11:39:45.654Z,100093.10
2023-02-28T11:43:15.408Z,100100.80
2023-02-28T11:46:37.874Z,100088.59
2023-02-28T11:50:01.547Z,100088.88
2023-02-28T11:53:27.273Z,100085.22
2023-02-28T11:56:50.011Z,100083.02
2023-02-28T12:00:18.720Z,100083.77
2023-02-28T12:03:49.946Z,100090.28
2023-02-28T12:07:14.325Z,100083.89
2023-02-28T12:10:35.223Z,100076.34
2023-02-28T12:14:00.546Z,100063.33
2023-02-28T12:17:29.024Z,100065.11
2023-02-28T12:20:50.989Z,100078.95
2023-02-28T12:24:37.908Z,100073.38
2023-02-28T12:27:57.356Z,100075.47
2023-02-28T12:31:18.474Z,100071.39
2023-02-28T12:34:40.308Z,100074.72
2023-02-28T12:38:02.886Z,100076.41
2023-02-28T12:41:24.249Z,100082.29
2023-02-28T12:44:45.893Z,100082.46
2023-02-28T12:48:09.280Z,100075.34
2023-02-28T12:51:30.010Z,100073.02
2023-02-28T12:58:12.314Z,100079.90
2023-02-28T13:01:58.976Z,100063.98
2023-02-28T13:06:01.763Z,100071.39
2023-02-28T13:12:34.298Z,100070.32
2023-02-28T13:16:09.586Z,100064.66
2023-02-28T13:19:31.316Z,100061.53
2023-02-28T13:22:56.454Z,100050.11
2023-02-28T13:26:15.716Z,100053.88
2023-02-28T13:29:39.764Z,100044.34
2023-02-28T13:33:04.692Z,100038.98
2023-02-28T13:36:35.875Z,100045.27
2023-02-28T13:43:34.709Z,100033.50
2023-02-28T13:47:06.457Z,100045.56
2023-02-28T13:50:40.551Z,100033.80
2023-02-28T13:57:33.135Z,100027.09
2023-02-28T14:01:15.565Z,100021.31
2023-02-28T14:05:17.721Z,100019.52
2023-02-28T14:08:36.075Z,100016.82
2023-02-28T14:11:54.309Z,100010.83
2023-02-28T14:15:23.965Z,100004.20
2023-02-28T14:18:47.873Z,99998.96
2023-02-28T14:22:15.076Z,99998.23
2023-02-28T14:25:41.453Z,100004.20
2023-02-28T14:29:17.480Z,99995.80
2023-02-28T14:32:45.158Z,99999.92
2023-02-28T14:36:19.789Z,100000.86
2023-02-28T14:39:41.239Z,99998.88
2023-02-28T14:43:09.707Z,100007.57
2023-02-28T14:46:30.427Z,100007.57
2023-02-28T14:49:50.563Z,100009.65
2023-02-28T14:53:07.262Z,99999.47
2023-02-28T14:56:32.820Z,100006.03
2023-02-28T14:59:50.030Z,100003.63
2023-02-28T15:03:19.895Z,100004.45
2023-02-28T15:06:37.537Z,100011.77
2023-02-28T15:09:56.314Z,100004.02
2023-02-28T15:13:19.566Z,100006.73
2023-02-28T15:16:40.523Z,100003.91
2023-02-28T15:20:02.377Z,100000.36
2023-02-28T15:23:20.281Z,99997.30
2023-02-28T15:26:43.765Z,99997.30
2023-02-28T15:30:06.880Z,99998.23
2023-02-28T15:33:33.222Z,100009.92
2023-02-28T15:36:49.604Z,99997.22
2023-02-28T15:40:13.845Z,100008.84
2023-02-28T15:43:36.059Z,99998.47
2023-02-28T15:47:08.492Z,99997.72
2023-02-28T15:50:27.938Z,99999.58
2023-02-28T15:53:55.238Z,100000.55
2023-02-28T15:57:20.458Z,99998.86
2023-02-28T16:00:41.643Z,99997.34
2023-02-28T16:04:03.180Z,100005.13
2023-02-28T16:07:27.930Z,99999.14
2023-02-28T16:10:44.319Z,100008.78
2023-02-28T16:14:02.029Z,100008.20
2023-02-28T16:17:23.806Z,100005.51
2023-02-28T16:20:45.603Z,99999.73
2023-02-28T16:24:01.934Z,100012.88
2023-02-28T16:27:24.393Z,100009.71
2023-02-28T16:30:40.961Z,100004.86
2023-02-28T16:33:58.776Z,100001.52
2023-02-28T16:37:23.163Z,100011.22
2023-02-28T16:44:00.760Z,100015.90
2023-02-28T16:47:19.522Z,100012.73
2023-02-28T16:50:39.183Z,100021.60
2023-02-28T16:53:56.747Z,100020.84
2023-02-28T17:00:30.933Z,100021.11
2023-02-28T17:03:52.414Z,100028.96
2023-02-28T17:07:10.028Z,100032.33
2023-02-28T17:10:30.556Z,100015.78
2023-02-28T17:13:46.854Z,100027.93
2023-02-28T17:17:03.364Z,100027.93
2023-02-28T17:20:24.721Z,100026.34
2023-02-28T17:23:41.864Z,100032.33
2023-02-28T17:26:59.460Z,100023.91
2023-02-28T17:30:24.279Z,100031.59
2023-02-28T17:33:47.844Z,100023.23
2023-02-28T17:37:05.745Z,100032.21
2023-02-28T17:40:29.200Z,100029.72
2023-02-28T17:43:46.431Z,100021.30
2023-02-28T17:47:06.680Z,100020.20
2023-02-28T17:50:28.474Z,100019.28
2023-02-28T17:53:45.910Z,100010.04
2023-02-28T17:57:05.356Z,100010.09
2023-02-28T18:00:30.398Z,100012.06
2023-02-28T18:03:47.289Z,100011.03
2023-02-28T18:07:06.345Z,100012.28
2023-02-28T18:10:26.793Z,100010.69
2023-02-28T18:13:43.764Z,100011.69
2023-02-28T18:17:01.606Z,100004.20
2023-02-28T18:20:23.029Z,100005.80
2023-02-28T18:23:37.286Z,100001.83
2023-02-28T18:26:54.269Z,100016.05
2023-02-28T18:30:18.819Z,100007.59
2023-02-28T18:33:34.926Z,100011.30
2023-02-28T18:36:52.668Z,100016.74
2023-02-28T18:40:11.672Z,100008.55
2023-02-28T18:43:30.261Z,100009.88
2023-02-28T18:46:47.840Z,100008.59
2023-02-28T18:50:07.294Z,100005.03
2023-02-28T18:53:27.749Z,100000.31
2023-02-28T18:56:45.987Z,99999.31
2023-02-28T19:00:03.694Z,99997.80
2023-02-28T19:03:23.381Z,99995.02
2023-02-28T19:06:43.040Z,99997.30
2023-02-28T19:10:01.536Z,99998.85
2023-02-28T19:13:22.504Z,99991.90
2023-02-28T19:16:43.177Z,99995.42
2023-02-28T19:20:04.631Z,99994.50
2023-02-28T19:23:23.820Z,100002.41
2023-02-28T19:26:47.722Z,99997.20
2023-02-28T19:30:08.160Z,100000.77
2023-02-28T19:33:30.781Z,99999.42
2023-02-28T19:36:51.608Z,99999.73
2023-02-28T19:40:06.763Z,99999.05
2023-02-28T19:43:25.220Z,100007.16
2023-02-28T19:46:41.733Z,100001.48
2023-02-28T19:49:58.629Z,99999.10
2023-02-28T19:53:18.188Z,100003.27
2023-02-28T19:56:36.137Z,100003.27
2023-02-28T19:59:53.274Z,99998.19
2023-02-28T20:03:10.152Z,99998.19
2023-02-28T20:06:27.214Z,99988.85
2023-02-28T20:09:45.715Z,99992.53
2023-02-28T20:13:02.320Z,99998.27
2023-02-28T20:16:22.730Z,99991.54
2023-02-28T20:19:39.755Z,99998.73
2023-02-28T20:22:56.825Z,99995.14
2023-02-28T20:29:37.015Z,100000.39
2023-02-28T20:33:03.411Z,100003.08
2023-02-28T20:36:24.353Z,100009.36
2023-02-28T20:39:47.501Z,100002.84
2023-02-28T20:43:06.399Z,99993.72
2023-02-28T20:46:24.953Z,99994.47
2023-02-28T20:49:41.679Z,99997.77
2023-02-28T20:53:02.527Z,99988.22
2023-02-28T20:59:35.174Z,99989.13
2023-02-28T21:02:56.599Z,99978.23
2023-02-28T21:06:40.549Z,99975.09
2023-02-28T21:10:02.125Z,99984.35
2023-02-28T21:13:31.223Z,99981.99
2023-02-28T21:16:50.448Z,99991.70
2023-02-28T21:20:13.595Z,99985.05
2023-02-28T21:23:30.771Z,99983.89
2023-02-28T21:27:14.533Z,99976.17
2023-02-28T21:30:18.197Z,99982.36
2023-02-28T21:33:35.639Z,99981.45
2023-02-28T21:36:54.938Z,99986.73
2023-02-28T21:40:13.844Z,99984.59
2023-02-28T21:43:44.596Z,99990.87
2023-02-28T21:47:09.839Z,99982.52
2023-02-28T21:50:20.315Z,99986.58
2023-02-28T21:53:39.618Z,99988.27
2023-02-28T21:56:56.124Z,99985.83
2023-02-28T22:00:17.705Z,99989.09
2023-02-28T22:03:35.013Z,99986.58
2023-02-28T22:06:53.634Z,99987.16
2023-02-28T22:10:13.478Z,99981.41
2023-02-28T22:13:33.164Z,99983.77
2023-02-28T22:16:55.223Z,99987.63
2023-02-28T22:20:13.631Z,99988.41
2023-02-28T22:23:30.078Z,99987.50
2023-02-28T22:26:47.140Z,99993.53
2023-02-28T22:30:04.744Z,99988.69
2023-02-28T22:33:21.394Z,99990.45
2023-02-28T22:36:39.233Z,100000.25
2023-02-28T22:39:55.796Z,100005.45
2023-02-28T22:43:13.341Z,100006.80
2023-02-28T22:46:31.897Z,100011.02
2023-02-28T22:49:48.952Z,100005.81
2023-02-28T22:53:05.570Z,100008.95
2023-02-28T22:59:38.552Z,100014.57
2023-02-28T23:02:55.583Z,100013.66
2023-02-28T23:06:19.912Z,100019.30
2023-02-28T23:09:36.434Z,100021.12
2023-02-28T23:12:55.935Z,100023.91
2023-02-28T23:16:12.427Z,100029.17
2023-02-28T23:19:31.504Z,100021.45
2023-02-28T23:22:51.279Z,100021.84
2023-02-28T23:26:08.057Z,100027.67
2023-02-28T23:29:28.312Z,100031.20
2023-02-28T23:32:45.579Z,100028.53
2023-02-28T23:36:04.248Z,100028.03
2023-02-28T23:39:21.974Z,100032.89
2023-02-28T23:46:01.666Z,100025.86
2023-02-28T23:49:27.567Z,100022.45
2023-02-28T23:52:41.980Z,100018.81
2023-02-28T23:55:59.843Z,100028.33
2023-02-28T23:59:17.222Z,100026.78
